Time;durP1;ratioP1;P1;durP2;ratioP2;P2;SDS_P1;SDS_P2;PMS_P1;PMS_P2;Temp;Humidity;BMP_temperature;BMP_pressure;BME280_temperature;BME280_humidity;BME280_pressure;Samples;Min_cycle;Max_cycle;Signal;HPM_P1;HPM_P2
2023/09/03 00:04:32;;;;;;;13.40;10.10;;;;;;;14.55;100.00;99604.89;272428;1273;22431;-86
2023/09/03 00:10:35;;;;;;;14.30;10.00;;;;;;;14.61;100.00;99615.30;272427;1272;23123;-84
2023/09/03 00:16:39;;;;;;;12.40;8.70;;;;;;;14.52;100.00;99614.48;272408;1273;22534;-83
2023/09/03 00:22:41;;;;;;;18.30;9.70;;;;;;;14.48;100.00;99604.08;272423;1273;22444;-83
2023/09/03 00:28:43;;;;;;;11.10;9.30;;;;;;;14.51;100.00;99589.05;272548;1267;23141;-83
2023/09/03 00:34:45;;;;;;;13.10;8.80;;;;;;;14.43;100.00;99593.66;270914;1268;22537;-85
2023/09/03 00:40:47;;;;;;;14.30;9.40;;;;;;;14.39;100.00;99587.65;270262;1270;22703;-85
2023/09/03 00:46:53;;;;;;;14.80;9.40;;;;;;;14.27;100.00;99587.55;271496;1273;22317;-86
2023/09/03 00:52:55;;;;;;;15.50;8.80;;;;;;;14.22;100.00;99587.14;272324;1273;22877;-85
2023/09/03 00:58:56;;;;;;;16.00;10.20;;;;;;;14.19;100.00;99583.10;272462;1273;23027;-85
2023/09/03 01:05:05;;;;;;;12.90;8.60;;;;;;;14.10;100.00;99581.87;272508;1273;22555;-85
2023/09/03 01:11:36;;;;;;;12.40;9.70;;;;;;;13.96;100.00;99582.48;272527;1273;22497;-85
2023/09/03 01:17:52;;;;;;;15.10;10.00;;;;;;;13.89;100.00;99585.66;272409;1272;22406;-85
2023/09/03 01:24:02;;;;;;;;;;;;;;;13.88;100.00;99586.67;272226;1273;23693;-84
2023/09/03 01:30:04;;;;;;;14.60;9.60;;;;;;;13.91;100.00;99591.02;272397;1265;22319;-85
2023/09/03 01:36:11;;;;;;;15.40;8.60;;;;;;;13.91;100.00;99589.67;272514;1273;22313;-85
2023/09/03 01:42:13;;;;;;;11.70;8.30;;;;;;;13.89;100.00;99589.83;273180;1262;22210;-84
2023/09/03 01:48:51;;;;;;;13.50;9.50;;;;;;;13.88;100.00;99596.11;273457;1268;22439;-85
2023/09/03 01:55:01;;;;;;;11.30;8.40;;;;;;;13.85;100.00;99592.15;273333;1267;23096;-84
2023/09/03 02:01:03;;;;;;;17.00;8.80;;;;;;;13.88;100.00;99593.75;273357;1269;22264;-86
2023/09/03 02:07:04;;;;;;;14.30;9.30;;;;;;;13.85;100.00;99592.39;271608;1255;22628;-85
2023/09/03 02:13:05;;;;;;;13.80;8.00;;;;;;;13.84;100.00;99589.16;270342;1269;22469;-85
2023/09/03 02:19:06;;;;;;;15.00;8.80;;;;;;;13.77;100.00;99575.83;273572;1261;23334;-85
2023/09/03 02:25:08;;;;;;;14.70;8.00;;;;;;;13.69;100.00;99573.30;273611;1261;22523;-84
2023/09/03 02:31:09;;;;;;;11.70;8.20;;;;;;;13.56;100.00;99563.79;273455;1268;24030;-84
2023/09/03 02:37:10;;;;;;;9.50;7.30;;;;;;;13.50;100.00;99558.16;270743;1267;23545;-84
2023/09/03 02:43:12;;;;;;;10.40;8.00;;;;;;;13.45;100.00;99552.30;270482;1268;22535;-84
2023/09/03 02:49:14;;;;;;;15.40;7.70;;;;;;;13.45;100.00;99554.49;270868;1267;22550;-84
2023/09/03 02:55:21;;;;;;;17.40;8.00;;;;;;;13.41;100.00;99548.90;270047;1267;22584;-84
2023/09/03 03:01:22;;;;;;;13.80;8.40;;;;;;;13.28;100.00;99546.25;271760;1265;25307;-84
2023/09/03 03:07:23;;;;;;;12.60;7.50;;;;;;;13.16;100.00;99554.00;270668;1268;22571;-83
2023/09/03 03:13:24;;;;;;;8.80;7.20;;;;;;;13.17;100.00;99557.55;270385;1269;23181;-84
2023/09/03 03:19:25;;;;;;;19.20;7.90;;;;;;;13.12;100.00;99562.84;270063;1268;23323;-85
2023/09/03 03:25:26;;;;;;;7.90;6.70;;;;;;;13.12;100.00;99561.97;270435;1268;22792;-84
2023/09/03 03:31:28;;;;;;;10.00;6.90;;;;;;;13.12;100.00;99564.02;273401;1268;23502;-84
2023/09/03 03:37:30;;;;;;;10.60;6.60;;;;;;;13.16;100.00;99577.71;272716;1267;22734;-84
2023/09/03 03:43:31;;;;;;;10.70;7.30;;;;;;;13.22;100.00;99573.47;270684;1267;22550;-85
2023/09/03 03:49:32;;;;;;;8.40;6.80;;;;;;;13.26;100.00;99572.64;269904;1268;22538;-86
2023/09/03 03:55:33;;;;;;;9.50;7.30;;;;;;;13.22;100.00;99571.81;270056;1266;22575;-85
2023/09/03 04:01:35;;;;;;;11.70;6.70;;;;;;;13.20;100.00;99563.70;269650;1268;22544;-84
2023/09/03 04:07:36;;;;;;;8.80;7.10;;;;;;;13.17;100.00;99559.73;271770;1269;23018;-85
2023/09/03 04:13:37;;;;;;;10.10;7.70;;;;;;;13.18;100.00;99562.11;273614;1268;22402;-85
2023/09/03 04:19:40;;;;;;;12.40;7.80;;;;;;;13.23;100.00;99552.34;273096;1268;22268;-85
2023/09/03 04:25:41;;;;;;;10.00;7.00;;;;;;;13.33;100.00;99544.96;273577;1267;22395;-85
2023/09/03 04:31:42;;;;;;;7.90;6.30;;;;;;;13.40;100.00;99543.54;273519;1269;24579;-85
2023/09/03 04:37:43;;;;;;;10.10;7.20;;;;;;;13.45;100.00;99551.98;273779;1268;23131;-85
2023/09/03 04:43:47;;;;;;;9.20;7.30;;;;;;;13.49;100.00;99550.13;273649;1269;22962;-84
2023/09/03 04:50:08;;;;;;;11.30;7.00;;;;;;;13.47;100.00;99571.95;273746;1268;22209;-84
2023/09/03 04:56:14;;;;;;;8.90;6.20;;;;;;;13.59;100.00;99584.16;273479;1266;22187;-84
2023/09/03 05:02:19;;;;;;;7.70;6.80;;;;;;;13.76;100.00;99587.67;273191;1268;23466;-85
2023/09/03 05:08:20;;;;;;;8.00;6.50;;;;;;;13.90;100.00;99586.70;273267;1267;22311;-86
2023/09/03 05:14:22;;;;;;;9.70;7.20;;;;;;;14.03;100.00;99587.64;272911;1266;23049;-85
2023/09/03 05:20:23;;;;;;;8.80;7.00;;;;;;;14.17;100.00;99596.14;272981;1258;23880;-84
2023/09/03 05:26:24;;;;;;;10.80;6.60;;;;;;;14.28;100.00;99592.37;271250;1268;23401;-84
2023/09/03 05:32:26;;;;;;;18.50;12.90;;;;;;;14.33;100.00;99609.16;271721;1268;23915;-85
2023/09/03 05:38:27;;;;;;;20.00;13.20;;;;;;;14.33;100.00;99623.65;270965;1268;24418;-84
2023/09/03 05:44:33;;;;;;;23.70;13.10;;;;;;;14.36;100.00;99633.81;272652;1261;22330;-85
2023/09/03 05:50:35;;;;;;;24.80;15.20;;;;;;;14.37;100.00;99642.71;271147;1268;24560;-85
2023/09/03 05:56:36;;;;;;;29.80;16.10;;;;;;;14.34;100.00;99610.67;271033;1268;24937;-86
2023/09/03 06:02:38;;;;;;;26.50;15.50;;;;;;;14.36;100.00;99623.91;272655;1266;22322;-85
2023/09/03 06:08:42;;;;;;;24.80;15.80;;;;;;;14.47;100.00;99621.94;273132;1262;22401;-84
2023/09/03 06:14:43;;;;;;;27.40;18.50;;;;;;;14.61;100.00;99631.77;273145;1265;22387;-85
2023/09/03 06:20:44;;;;;;;25.70;17.40;;;;;;;14.80;100.00;99632.87;273873;1269;22357;-87
2023/09/03 06:26:45;;;;;;;24.60;18.40;;;;;;;14.96;100.00;99628.45;273874;1268;22288;-85
2023/09/03 06:32:57;;;;;;;30.60;18.90;;;;;;;15.10;100.00;99621.31;273807;1269;22183;-85
2023/09/03 06:38:58;;;;;;;24.00;16.80;;;;;;;15.24;100.00;99625.38;274018;1268;22934;-85
2023/09/03 06:44:59;;;;;;;22.90;15.30;;;;;;;15.32;100.00;99627.21;273395;1268;22242;-86
2023/09/03 06:51:00;;;;;;;27.70;17.40;;;;;;;15.39;100.00;99619.99;273883;1267;24259;-86
2023/09/03 06:57:02;;;;;;;21.80;15.20;;;;;;;15.45;100.00;99630.98;272725;1267;22764;-85
2023/09/03 07:03:17;;;;;;;24.10;14.70;;;;;;;15.47;100.00;99642.23;271239;1270;22995;-85
2023/09/03 07:09:18;;;;;;;23.00;16.20;;;;;;;15.45;100.00;99628.77;270075;1269;22726;-85
2023/09/03 07:15:20;;;;;;;23.10;15.30;;;;;;;15.49;100.00;99634.36;271534;1270;22383;-84
2023/09/03 07:21:21;;;;;;;21.80;15.70;;;;;;;15.53;100.00;99636.41;273807;1269;22412;-85
2023/09/03 07:27:21;;;;;;;28.30;20.90;;;;;;;15.64;100.00;99628.46;272222;1269;23242;-84
2023/09/03 07:33:22;;;;;;;28.10;19.10;;;;;;;15.77;100.00;99638.73;270285;1269;24391;-84
2023/09/03 07:39:23;;;;;;;24.90;17.80;;;;;;;15.89;100.00;99646.31;269986;1268;22546;-83
2023/09/03 07:45:25;;;;;;;18.60;13.50;;;;;;;15.89;100.00;99680.45;270921;1266;23970;-85
2023/09/03 07:51:26;;;;;;;23.20;13.80;;;;;;;15.73;100.00;99670.98;273153;1269;23464;-85
2023/09/03 07:57:31;;;;;;;17.60;14.10;;;;;;;15.66;100.00;99685.39;273531;1268;22453;-85
2023/09/03 08:03:33;;;;;;;15.20;12.30;;;;;;;15.68;100.00;99693.91;273811;1269;22334;-84
2023/09/03 08:09:34;;;;;;;11.60;9.40;;;;;;;15.81;100.00;99697.41;273865;1256;22298;-85
2023/09/03 08:15:35;;;;;;;14.30;11.80;;;;;;;15.92;100.00;99700.48;273752;1271;23061;-84
2023/09/03 08:21:36;;;;;;;14.00;11.60;;;;;;;16.11;100.00;99705.16;273806;1270;22545;-85
2023/09/03 08:27:38;;;;;;;13.50;11.70;;;;;;;16.37;100.00;99703.98;273893;1272;22677;-85
2023/09/03 08:33:40;;;;;;;16.00;12.10;;;;;;;16.63;100.00;99699.23;273320;1270;22532;-84
2023/09/03 08:39:41;;;;;;;9.90;7.50;;;;;;;16.77;100.00;99704.01;270679;1268;22556;-85
2023/09/03 08:45:51;;;;;;;9.60;8.20;;;;;;;16.82;100.00;99702.02;270578;1257;23326;-85
2023/09/03 08:51:52;;;;;;;9.60;8.10;;;;;;;17.04;100.00;99703.91;269622;1267;23397;-86
2023/09/03 08:57:54;;;;;;;13.10;11.10;;;;;;;17.21;100.00;99716.73;272747;1269;23115;-87
2023/09/03 09:03:59;;;;;;;17.30;13.40;;;;;;;17.30;100.00;99712.20;272412;1267;22356;-86
2023/09/03 09:10:43;;;;;;;15.70;12.90;;;;;;;17.60;100.00;99711.33;273029;1270;22222;-86
2023/09/03 09:16:44;;;;;;;18.30;14.30;;;;;;;17.78;100.00;99709.02;273472;1267;22652;-87
2023/09/03 09:22:47;;;;;;;11.60;9.30;;;;;;;17.89;100.00;99709.83;270262;1269;22526;-85
2023/09/03 09:29:03;;;;;;;11.40;9.60;;;;;;;18.00;100.00;99716.23;272239;1267;22220;-86
2023/09/03 09:35:05;;;;;;;12.30;10.00;;;;;;;18.12;100.00;99711.86;273596;1268;22174;-85
2023/09/03 09:41:26;;;;;;;12.40;11.20;;;;;;;18.34;100.00;99712.02;273257;1269;23066;-87
2023/09/03 09:47:31;;;;;;;12.20;8.50;;;;;;;18.72;100.00;99706.73;273498;1269;22228;-85
2023/09/03 09:53:34;;;;;;;13.30;8.40;;;;;;;18.84;100.00;99696.56;273686;1270;23069;-88
2023/09/03 09:59:36;;;;;;;7.50;6.30;;;;;;;19.02;100.00;99693.27;273777;1268;22230;-87
2023/09/03 10:05:37;;;;;;;10.10;8.00;;;;;;;19.16;100.00;99685.73;273782;1267;22866;-87
2023/09/03 10:11:38;;;;;;;7.20;6.40;;;;;;;19.46;100.00;99683.43;273098;1268;22482;-84
2023/09/03 10:17:40;;;;;;;7.50;6.30;;;;;;;20.25;100.00;99682.06;273634;1267;22366;-85
2023/09/03 10:24:05;;;;;;;9.20;6.90;;;;;;;20.59;100.00;99682.34;273647;1267;23630;-84
2023/09/03 10:30:09;;;;;;;9.10;6.90;;;;;;;20.32;100.00;99675.77;273444;1269;22332;-86
2023/09/03 10:36:17;;;;;;;9.40;7.40;;;;;;;20.04;100.00;99680.27;273764;1270;22473;-84
2023/09/03 10:42:24;;;;;;;12.80;8.30;;;;;;;19.59;100.00;99674.91;272657;1267;22489;-84
2023/09/03 10:48:25;;;;;;;13.40;9.50;;;;;;;19.38;100.00;99684.52;270504;1260;22587;-85
2023/09/03 10:56:01;;;;;;;;;;;;;;;;;;;;;
2023/09/03 11:02:44;;;;;;;12.50;9.80;;;;;;;19.30;100.00;99680.23;270767;1269;22639;-85
2023/09/03 11:08:58;;;;;;;13.20;9.40;;;;;;;19.15;100.00;99684.23;272978;1268;22397;-85
2023/09/03 11:15:00;;;;;;;7.90;7.10;;;;;;;19.05;100.00;99683.95;273661;1267;22281;-86
2023/09/03 11:21:02;;;;;;;10.80;7.90;;;;;;;18.91;100.00;99675.08;272714;1267;22388;-86
2023/09/03 11:27:05;;;;;;;11.90;7.70;;;;;;;18.96;100.00;99668.84;272968;1267;273244;-86
2023/09/03 11:33:08;;;;;;;14.20;10.10;;;;;;;19.32;100.00;99663.02;272751;1268;23198;-86
2023/09/03 11:39:16;;;;;;;12.20;9.00;;;;;;;19.59;100.00;99665.10;273695;1268;22341;-87
2023/09/03 11:45:24;;;;;;;11.20;7.40;;;;;;;19.89;100.00;99668.36;273682;1269;23479;-87
2023/09/03 11:51:30;;;;;;;;;;;;;;;20.11;100.00;99663.16;272136;1269;23910;-86
2023/09/03 11:57:47;;;;;;;7.70;6.30;;;;;;;20.24;100.00;99649.86;273341;1268;22304;-87
2023/09/03 12:03:56;;;;;;;6.10;5.30;;;;;;;20.29;100.00;99645.57;273571;1268;23181;-86
2023/09/03 12:09:57;;;;;;;5.20;4.00;;;;;;;20.28;100.00;99636.30;273464;1270;22396;-86
2023/09/03 12:16:25;;;;;;;6.10;4.70;;;;;;;20.25;100.00;99627.91;273547;1260;22515;-86
2023/09/03 12:22:27;;;;;;;5.80;4.30;;;;;;;20.10;100.00;99625.22;273376;1269;22356;-87
2023/09/03 12:28:35;;;;;;;6.30;4.70;;;;;;;20.12;100.00;99633.93;273456;1267;22216;-86
2023/09/03 12:34:38;;;;;;;6.20;5.00;;;;;;;20.21;100.00;99633.88;273391;1267;22206;-87
2023/09/03 12:40:39;;;;;;;5.10;4.60;;;;;;;20.29;100.00;99634.69;273716;1267;22346;-86
2023/09/03 12:46:42;;;;;;;7.40;5.40;;;;;;;20.32;100.00;99639.16;273588;1268;22336;-85
2023/09/03 12:52:43;;;;;;;8.10;5.40;;;;;;;20.37;100.00;99643.03;273666;1268;22912;-86
2023/09/03 12:58:46;;;;;;;9.30;5.20;;;;;;;20.40;100.00;99639.33;272076;1267;22599;-85
2023/09/03 13:04:47;;;;;;;6.10;4.50;;;;;;;20.55;100.00;99636.74;273584;1262;22461;-86
2023/09/03 13:10:48;;;;;;;6.70;4.40;;;;;;;20.56;100.00;99637.05;272771;1267;22330;-86
2023/09/03 13:16:50;;;;;;;7.10;4.40;;;;;;;20.50;100.00;99643.84;273556;1268;22335;-85
2023/09/03 13:22:51;;;;;;;4.50;4.10;;;;;;;20.58;100.00;99635.71;271484;1268;22509;-85
2023/09/03 13:28:56;;;;;;;5.10;3.80;;;;;;;20.64;100.00;99627.33;270910;1268;22559;-85
2023/09/03 13:34:58;;;;;;;4.70;4.10;;;;;;;20.69;100.00;99622.39;271966;1268;22309;-84
2023/09/03 13:40:59;;;;;;;7.60;4.00;;;;;;;20.80;100.00;99614.61;271541;1267;22661;-84
2023/09/03 13:47:20;;;;;;;4.50;4.00;;;;;;;20.83;100.00;99609.23;272675;1268;22962;-85
2023/09/03 13:53:21;;;;;;;5.80;4.20;;;;;;;20.80;100.00;99616.44;270428;1269;24285;-85
2023/09/03 13:59:22;;;;;;;4.20;3.80;;;;;;;20.76;100.00;99616.92;270611;1262;22348;-85
2023/09/03 14:05:23;;;;;;;5.00;4.00;;;;;;;20.76;100.00;99620.19;272008;1267;22624;-84
2023/09/03 14:11:24;;;;;;;4.10;3.40;;;;;;;20.68;100.00;99625.67;270511;1266;22565;-84
2023/09/03 14:17:25;;;;;;;3.10;2.80;;;;;;;20.53;100.00;99628.11;270906;1268;22380;-85
2023/09/03 14:23:33;;;;;;;3.40;2.90;;;;;;;20.54;100.00;99625.88;272968;1268;22563;-85
2023/09/03 14:29:34;;;;;;;;;;;;;;;20.45;99.81;99622.30;271206;1268;22608;-84
2023/09/03 14:35:35;;;;;;;5.00;2.60;;;;;;;20.41;98.80;99623.73;273178;1268;22330;-85
2023/09/03 14:41:36;;;;;;;4.40;2.60;;;;;;;20.47;99.08;99629.99;273562;1268;22333;-84
2023/09/03 14:47:39;;;;;;;3.60;2.50;;;;;;;20.49;97.23;99633.28;272373;1268;22207;-84
2023/09/03 14:53:40;;;;;;;2.80;2.20;;;;;;;20.49;95.99;99641.08;272256;1269;22452;-85
2023/09/03 14:59:42;;;;;;;2.90;2.40;;;;;;;20.51;95.55;99639.60;272414;1268;22337;-85
2023/09/03 15:05:43;;;;;;;3.80;2.50;;;;;;;20.49;95.20;99646.61;273566;1263;22432;-85
2023/09/03 15:11:44;;;;;;;5.40;2.50;;;;;;;20.40;95.00;99649.88;272410;1267;23009;-85
2023/09/03 15:17:46;;;;;;;3.20;2.30;;;;;;;20.32;94.07;99653.45;270762;1267;22648;-85
2023/09/03 15:23:47;;;;;;;2.80;2.40;;;;;;;20.24;93.93;99654.30;270520;1267;22531;-86
2023/09/03 15:29:48;;;;;;;4.10;2.50;;;;;;;20.13;93.78;99656.30;271695;1265;22576;-86
2023/09/03 15:35:49;;;;;;;6.40;3.70;;;;;;;20.01;93.62;99662.61;270106;1267;24015;-85
2023/09/03 15:41:56;;;;;;;5.40;3.30;;;;;;;19.91;93.55;99666.73;270203;1267;22581;-86
2023/09/03 15:48:01;;;;;;;;;;;;;;;19.84;92.91;99668.05;269619;1268;25491;-85
2023/09/03 15:54:02;;;;;;;3.90;2.40;;;;;;;19.80;91.98;99667.55;270923;1264;22967;-85
2023/09/03 16:00:04;;;;;;;5.00;2.60;;;;;;;19.76;91.83;99674.27;272025;1262;22567;-85
2023/09/03 16:06:06;;;;;;;6.00;2.60;;;;;;;19.72;92.51;99679.58;264328;1268;10001550;-85
2023/09/03 16:12:08;;;;;;;5.00;2.90;;;;;;;19.63;92.49;99685.34;271716;1268;22523;-85
2023/09/03 16:18:16;;;;;;;5.80;2.80;;;;;;;19.53;92.03;99691.20;270967;1268;25158;-85
2023/09/03 16:24:18;;;;;;;3.80;3.00;;;;;;;19.47;92.49;99692.87;272507;1268;22494;-86
2023/09/03 16:30:18;;;;;;;4.70;2.60;;;;;;;19.39;92.56;99699.96;271621;1267;22546;-85
2023/09/03 16:36:19;;;;;;;4.20;2.60;;;;;;;19.25;92.60;99706.55;272144;1268;22530;-85
2023/09/03 16:42:20;;;;;;;3.90;2.20;;;;;;;19.11;92.34;99706.94;273570;1268;22345;-85
2023/09/03 16:48:22;;;;;;;4.20;2.40;;;;;;;19.06;91.42;99712.95;273582;1267;22396;-85
2023/09/03 16:54:23;;;;;;;4.20;2.20;;;;;;;19.01;91.07;99718.23;271345;1268;22531;-86
2023/09/03 17:00:26;;;;;;;2.80;2.20;;;;;;;18.94;91.69;99719.67;272122;1266;22209;-86
2023/09/03 17:06:27;;;;;;;6.80;2.50;;;;;;;18.81;91.87;99727.89;272921;1268;22449;-85
2023/09/03 17:12:28;;;;;;;2.90;2.00;;;;;;;18.69;92.25;99735.06;273541;1267;22372;-86
2023/09/03 17:18:28;;;;;;;4.60;2.20;;;;;;;18.55;92.48;99741.94;273633;1268;23725;-86
2023/09/03 17:24:30;;;;;;;3.60;2.00;;;;;;;18.30;91.22;99746.33;273500;1265;23411;-85
2023/09/03 17:30:31;;;;;;;3.50;1.80;;;;;;;18.22;89.73;99745.44;273398;1262;23104;-86
2023/09/03 17:36:34;;;;;;;4.20;1.90;;;;;;;18.22;88.88;99754.78;273601;1267;22226;-86
2023/09/03 17:42:36;;;;;;;5.40;1.90;;;;;;;18.19;89.46;99763.44;273539;1267;24214;-85
2023/09/03 17:48:37;;;;;;;3.70;2.00;;;;;;;18.08;90.25;99772.31;273547;1267;22365;-86
2023/09/03 17:54:38;;;;;;;3.50;2.30;;;;;;;17.80;89.51;99776.35;273543;1268;22379;-85
2023/09/03 18:00:40;;;;;;;2.80;2.50;;;;;;;17.62;89.82;99779.61;273224;1269;23496;-86
2023/09/03 18:06:41;;;;;;;2.70;2.20;;;;;;;17.49;89.60;99789.07;273102;1270;23474;-85
2023/09/03 18:12:57;;;;;;;3.20;2.00;;;;;;;17.30;89.57;99800.58;273223;1270;22349;-85
2023/09/03 18:19:18;;;;;;;3.60;2.30;;;;;;;17.13;89.93;99807.27;273210;1270;22300;-85
2023/09/03 18:25:24;;;;;;;5.90;2.70;;;;;;;17.00;90.79;99812.84;273365;1269;23666;-85
2023/09/03 18:31:25;;;;;;;5.50;2.40;;;;;;;16.91;92.66;99813.56;273209;1270;22430;-85
2023/09/03 18:37:26;;;;;;;5.90;2.60;;;;;;;16.88;94.06;99812.92;273175;1270;22203;-86
2023/09/03 18:43:31;;;;;;;4.50;2.60;;;;;;;16.75;94.64;99820.69;273308;1270;22345;-85
2023/09/03 18:49:32;;;;;;;4.60;2.90;;;;;;;16.61;95.02;99832.85;273356;1270;22398;-85
2023/09/03 18:55:37;;;;;;;4.40;2.90;;;;;;;16.56;95.87;99838.94;272769;1262;22358;-86
2023/09/03 19:01:41;;;;;;;6.50;3.20;;;;;;;16.51;96.76;99836.87;273335;1269;22386;-86
2023/09/03 19:07:45;;;;;;;7.80;3.30;;;;;;;16.42;97.28;99847.35;273364;1270;22200;-85
2023/09/03 19:13:47;;;;;;;5.20;3.50;;;;;;;16.32;97.64;99850.95;272091;1269;24378;-86
2023/09/03 19:19:48;;;;;;;5.40;3.80;;;;;;;16.12;97.71;99855.10;270210;1270;22358;-85
2023/09/03 19:25:50;;;;;;;4.00;3.20;;;;;;;15.94;98.60;99857.81;270463;1269;22563;-85
2023/09/03 19:31:52;;;;;;;5.60;3.10;;;;;;;15.83;99.48;99862.34;272407;1270;24224;-85
2023/09/03 19:37:53;;;;;;;5.60;3.60;;;;;;;15.80;99.93;99867.46;270902;1270;22547;-86
2023/09/03 19:43:56;;;;;;;5.70;3.90;;;;;;;15.72;100.00;99863.09;269736;1270;22713;-85
2023/09/03 19:50:18;;;;;;;6.60;2.90;;;;;;;15.71;100.00;99859.85;271388;1269;23125;-86
2023/09/03 19:56:21;;;;;;;3.50;3.20;;;;;;;15.63;100.00;99858.16;273347;1269;22271;-86
2023/09/03 20:02:23;;;;;;;5.80;3.50;;;;;;;15.48;100.00;99857.54;273317;1261;22223;-85
2023/09/03 20:08:24;;;;;;;6.10;3.70;;;;;;;15.41;100.00;99861.05;273264;1271;22404;-85
2023/09/03 20:14:26;;;;;;;9.80;3.60;;;;;;;15.40;100.00;99862.30;273345;1270;22431;-86
2023/09/03 20:20:27;;;;;;;7.00;3.80;;;;;;;15.37;100.00;99872.30;273352;1269;22214;-85
2023/09/03 20:26:29;;;;;;;9.80;5.30;;;;;;;15.35;100.00;99870.76;273443;1270;22418;-85
2023/09/03 20:32:30;;;;;;;9.70;4.80;;;;;;;15.38;100.00;99871.90;273483;1270;22501;-85
2023/09/03 20:38:31;;;;;;;9.70;4.70;;;;;;;15.33;100.00;99874.62;273427;1269;22408;-86
2023/09/03 20:44:32;;;;;;;7.20;4.60;;;;;;;15.22;100.00;99869.90;273441;1270;23100;-86
2023/09/03 20:50:37;;;;;;;7.90;5.10;;;;;;;15.14;100.00;99859.68;273379;1270;22382;-86
2023/09/03 20:56:38;;;;;;;11.30;5.20;;;;;;;15.07;100.00;99849.55;273453;1271;22203;-85
2023/09/03 21:02:40;;;;;;;11.40;5.50;;;;;;;14.94;100.00;99845.36;271752;1266;23687;-86
2023/09/03 21:08:42;;;;;;;11.60;5.00;;;;;;;14.83;100.00;99850.00;272366;1270;22410;-86
2023/09/03 21:14:44;;;;;;;8.00;5.50;;;;;;;14.81;100.00;99855.17;273184;1271;22335;-86
2023/09/03 21:20:45;;;;;;;8.60;4.90;;;;;;;14.81;100.00;99862.36;270918;1269;22290;-86
2023/09/03 21:26:46;;;;;;;7.90;5.00;;;;;;;14.75;100.00;99857.82;272991;1270;23319;-85
2023/09/03 21:32:47;;;;;;;8.40;5.30;;;;;;;14.64;100.00;99852.85;273262;1270;22381;-86
2023/09/03 21:38:49;;;;;;;11.20;6.20;;;;;;;14.65;100.00;99852.07;273505;1268;22348;-86
2023/09/03 21:44:50;;;;;;;7.90;5.10;;;;;;;14.64;100.00;99864.66;273485;1270;22198;-85
2023/09/03 21:50:51;;;;;;;7.10;5.30;;;;;;;14.56;100.00;99865.77;273513;1262;22386;-86
2023/09/03 21:56:52;;;;;;;9.60;5.40;;;;;;;14.49;100.00;99869.71;271608;1270;23362;-86
2023/09/03 22:02:53;;;;;;;9.40;5.30;;;;;;;14.45;100.00;99877.78;270392;1269;22606;-85
2023/09/03 22:08:54;;;;;;;7.60;5.30;;;;;;;14.39;100.00;99883.08;271378;1269;23102;-85
2023/09/03 22:14:57;;;;;;;10.70;4.70;;;;;;;14.27;100.00;99888.54;273360;1270;22441;-85
2023/09/03 22:21:00;;;;;;;13.40;5.40;;;;;;;14.13;100.00;99899.86;270979;1270;22375;-85
2023/09/03 22:27:24;;;;;;;10.30;5.40;;;;;;;14.00;100.00;99906.54;271145;1269;22528;-85
2023/09/03 22:33:32;;;;;;;12.80;5.70;;;;;;;14.00;100.00;99919.05;270049;1271;22510;-86
2023/09/03 22:39:36;;;;;;;9.70;5.10;;;;;;;14.10;100.00;99924.67;269666;1269;22541;-85
2023/09/03 22:45:37;;;;;;;11.20;6.20;;;;;;;14.15;100.00;99927.57;270332;1269;22517;-86
2023/09/03 22:51:38;;;;;;;10.60;6.40;;;;;;;14.20;100.00;99923.45;269950;1270;25418;-85
2023/09/03 22:57:39;;;;;;;12.00;7.10;;;;;;;14.17;100.00;99917.83;272921;1269;23221;-85
2023/09/03 23:03:40;;;;;;;16.50;8.40;;;;;;;14.22;100.00;99919.00;271152;1271;23277;-85
2023/09/03 23:09:41;;;;;;;16.00;8.30;;;;;;;14.34;100.00;99928.27;272731;1269;22237;-88
2023/09/03 23:15:42;;;;;;;11.80;6.90;;;;;;;14.37;100.00;99921.62;270209;1270;22601;-85
2023/09/03 23:21:46;;;;;;;16.70;6.90;;;;;;;14.40;100.00;99913.40;269930;1270;22623;-84
2023/09/03 23:28:04;;;;;;;15.00;7.10;;;;;;;14.42;100.00;99913.80;269645;1270;3519951;-86
2023/09/03 23:34:05;;;;;;;13.20;7.10;;;;;;;14.46;100.00;99915.48;273402;1269;22322;-85
2023/09/03 23:40:07;;;;;;;12.30;6.30;;;;;;;14.46;100.00;99905.27;273366;1270;22367;-85
2023/09/03 23:46:08;;;;;;;10.10;6.50;;;;;;;14.49;100.00;99901.58;271719;1269;23251;-84
2023/09/03 23:52:09;;;;;;;8.50;5.80;;;;;;;14.43;100.00;99892.41;270444;1271;22232;-84
2023/09/03 23:58:12;;;;;;;9.80;6.20;;;;;;;14.36;100.00;99890.84;270670;1269;22545;-85
